Highland City, Florida
Current Conditions -  °F | °C
As of 11:54 AM on Sunday 23 Nov 2014 (Local Time) from KBOW Reporting Station
Broken Clouds Broken Clouds  
Wind Chill: 28°   Ceiling: 3300
Heat Index: 30°   Visibility: 10mi
Dew Point: 21°   Wind: 15mph
Humidity: 66%   Direction: 150°SSE
Pressure: 29.99"   Gusts: 24mph
Location:  27.97°N, 81.88°W
Report Text: KBOW 231654Z 15013G21KT 10SM SCT021 BKN033 28/21 A2999
Loading
Personal Weather Stations






























Interactive Weather Map New forecast layout! Learn more

10-Day Weather Forecast

Advertisements
Track Severe Weather on mobile